KDXR/DXR METAR and TAF weather

Enter ICAO airport designator
Station Type Date Time Source
KDXR METAR 2018/04/19 13:22 UTC NOAA

KDXR 191322Z 02007KT 10SM SCT010 OVC037 03/02 A2971 RMK AO2 T00330017


Station Type Date Time Source
KDXR Decoded METAR 2018/04/19 13:22 UTC NOAA

DANBURY MUNICIPAL AIRPORT, CT, United States (KDXR) 41-22N 073-29W 139M
Apr 19, 2018 - 09:22 AM EDT / 2018.04.19 1322 UTC
Wind: from the NNE (020 degrees) at 8 MPH (7 KT):0
Visibility: 10 mile(s):0
Sky conditions: overcast
Temperature: 37.9 F (3.3 C)
Dew Point: 35.1 F (1.7 C)
Relative Humidity: 89%
Pressure (altimeter): 29.71 in. Hg (1006 hPa)
ob: KDXR 191322Z 02007KT 10SM SCT010 OVC037 03/02 A2971 RMK AO2 T00330017
cycle: 13

Station Type Date Time Source
KDXR TAF UTC NOAA

Error!


Example: see airport list